createdAt,value
2018-11-10T00:02:04.347Z,21.18
2018-11-10T00:04:30.336Z,21.17
2018-11-10T00:06:56.345Z,21.18
2018-11-10T00:09:22.357Z,21.18
2018-11-10T00:11:48.361Z,21.18
2018-11-10T00:14:14.347Z,21.17
2018-11-10T00:16:40.402Z,21.17
2018-11-10T00:19:06.374Z,21.15
2018-11-10T00:21:32.353Z,21.16
2018-11-10T00:23:58.406Z,21.16
2018-11-10T00:26:24.392Z,21.15
2018-11-10T00:28:50.400Z,21.13
2018-11-10T00:31:16.417Z,21.15
2018-11-10T00:33:42.422Z,21.14
2018-11-10T00:36:08.422Z,21.14
2018-11-10T00:38:34.429Z,21.13
2018-11-10T00:41:00.445Z,21.13
2018-11-10T00:43:26.429Z,21.13
2018-11-10T00:45:52.411Z,21.13
2018-11-10T00:48:18.422Z,21.11
2018-11-10T00:50:44.434Z,21.11
2018-11-10T00:53:10.422Z,21.12
2018-11-10T00:55:36.436Z,21.11
2018-11-10T00:58:02.416Z,21.12
2018-11-10T01:00:28.416Z,21.11
2018-11-10T01:02:54.412Z,21.10
2018-11-10T01:05:20.417Z,21.10
2018-11-10T01:07:46.425Z,21.10
2018-11-10T01:10:12.440Z,21.11
2018-11-10T01:12:38.454Z,21.09
2018-11-10T01:15:04.435Z,21.10
2018-11-10T01:17:30.485Z,21.09
2018-11-10T01:19:56.472Z,21.09
2018-11-10T01:22:22.486Z,21.09
2018-11-10T01:24:48.469Z,21.09
2018-11-10T01:27:14.478Z,21.08
2018-11-10T01:29:40.473Z,21.08
2018-11-10T01:32:06.541Z,21.08
2018-11-10T01:34:32.519Z,21.08
2018-11-10T01:36:58.533Z,21.07
2018-11-10T01:39:24.539Z,21.09
2018-11-10T01:41:50.525Z,21.08
2018-11-10T01:44:16.510Z,21.07
2018-11-10T01:46:42.523Z,21.07
2018-11-10T01:49:08.520Z,21.07
2018-11-10T01:51:34.529Z,21.07
2018-11-10T01:54:00.539Z,21.07
2018-11-10T01:56:26.524Z,21.07
2018-11-10T01:58:52.502Z,21.07
2018-11-10T02:01:18.491Z,21.07
2018-11-10T02:03:44.475Z,21.06
2018-11-10T02:06:10.456Z,21.07
2018-11-10T02:08:36.468Z,21.06
2018-11-10T02:11:02.483Z,21.06
2018-11-10T02:13:28.492Z,21.07
2018-11-10T02:15:54.480Z,21.06
2018-11-10T02:18:20.461Z,21.06
2018-11-10T02:20:46.506Z,21.05
2018-11-10T02:23:12.630Z,21.05
2018-11-10T02:25:38.618Z,21.06
2018-11-10T02:28:04.610Z,21.05
2018-11-10T02:30:30.620Z,21.05
2018-11-10T02:32:56.609Z,21.05
2018-11-10T02:35:22.594Z,21.05
2018-11-10T02:37:48.606Z,21.05
2018-11-10T02:40:14.591Z,21.04
2018-11-10T02:42:40.602Z,21.04
2018-11-10T02:45:06.588Z,21.05
2018-11-10T02:47:32.582Z,21.05
2018-11-10T02:49:58.586Z,21.04
2018-11-10T02:52:24.610Z,21.05
2018-11-10T02:54:50.590Z,21.04
2018-11-10T02:57:16.767Z,21.04
2018-11-10T02:59:42.781Z,21.04
2018-11-10T03:02:08.792Z,21.04
2018-11-10T03:04:34.797Z,21.03
2018-11-10T03:07:00.786Z,21.04
2018-11-10T03:09:26.797Z,21.03
2018-11-10T03:11:52.804Z,21.03
2018-11-10T03:14:18.813Z,21.02
2018-11-10T03:16:44.797Z,21.03
2018-11-10T03:19:10.810Z,21.03
2018-11-10T03:21:36.789Z,21.02
2018-11-10T03:24:02.780Z,21.03
2018-11-10T03:26:28.762Z,21.02
2018-11-10T03:28:54.778Z,21.02
2018-11-10T03:31:20.758Z,21.02
2018-11-10T03:33:46.741Z,21.02
2018-11-10T03:36:12.782Z,21.02
2018-11-10T03:38:38.791Z,21.02
2018-11-10T03:41:04.777Z,21.02
2018-11-10T03:43:30.790Z,21.02
2018-11-10T03:45:56.792Z,21.01
2018-11-10T03:48:22.804Z,21.01
2018-11-10T03:50:48.805Z,21.02
2018-11-10T03:53:14.788Z,21.01
2018-11-10T03:55:40.805Z,21.01
2018-11-10T03:58:06.786Z,21.01
2018-11-10T04:00:32.772Z,21.01
2018-11-10T04:02:58.758Z,21.01
2018-11-10T04:05:24.739Z,21.00
2018-11-10T04:07:50.722Z,21.00
2018-11-10T04:10:16.703Z,21.00
2018-11-10T04:12:42.720Z,21.00
2018-11-10T04:15:08.724Z,21.01
2018-11-10T04:17:34.708Z,21.00
2018-11-10T04:20:00.696Z,21.00
2018-11-10T04:22:26.679Z,21.00
2018-11-10T04:24:52.725Z,20.99
2018-11-10T04:27:18.712Z,20.99
2018-11-10T04:29:44.726Z,20.98
2018-11-10T04:32:10.716Z,20.99
2018-11-10T04:34:36.729Z,20.99
2018-11-10T04:37:02.712Z,20.99
2018-11-10T04:39:28.717Z,20.98
2018-11-10T04:41:54.722Z,20.97
2018-11-10T04:44:20.755Z,20.99
2018-11-10T04:46:46.742Z,20.99
2018-11-10T04:49:12.754Z,21.00
2018-11-10T04:51:38.766Z,21.00
2018-11-10T04:54:04.743Z,20.99
2018-11-10T04:56:30.759Z,21.02
2018-11-10T04:58:56.764Z,21.03
2018-11-10T05:01:22.850Z,21.03
2018-11-10T05:03:48.809Z,21.04
2018-11-10T05:06:14.816Z,21.05
2018-11-10T05:08:40.805Z,21.05
2018-11-10T05:11:06.793Z,21.05
2018-11-10T05:13:32.773Z,21.06
2018-11-10T05:15:58.755Z,21.06
2018-11-10T05:18:24.736Z,21.07
2018-11-10T05:20:50.746Z,21.08
2018-11-10T05:23:16.754Z,21.07
2018-11-10T05:25:42.784Z,21.07
2018-11-10T05:28:08.800Z,21.07
2018-11-10T05:30:34.804Z,21.09
2018-11-10T05:33:00.791Z,21.10
2018-11-10T05:35:26.779Z,21.09
2018-11-10T05:37:52.761Z,21.10
2018-11-10T05:40:18.769Z,21.10
2018-11-10T05:42:44.785Z,21.09
2018-11-10T05:45:10.812Z,21.11
2018-11-10T05:47:36.801Z,21.12
2018-11-10T05:50:02.783Z,21.11
2018-11-10T05:52:28.769Z,21.11
2018-11-10T05:54:54.959Z,21.12
2018-11-10T05:57:21.026Z,21.12
2018-11-10T05:59:46.930Z,21.13
2018-11-10T06:02:12.959Z,21.12
2018-11-10T06:04:38.964Z,21.11
2018-11-10T06:07:04.940Z,21.13
2018-11-10T06:09:31.012Z,21.12
2018-11-10T06:11:56.984Z,21.13
2018-11-10T06:14:22.994Z,21.13
2018-11-10T06:16:49.003Z,21.13
2018-11-10T06:19:15.012Z,21.13
2018-11-10T06:21:41.022Z,21.12
2018-11-10T06:24:07.029Z,21.14
2018-11-10T06:26:33.016Z,21.13
2018-11-10T06:28:59.002Z,21.13
2018-11-10T06:31:24.984Z,21.13
2018-11-10T06:33:51.034Z,21.13
2018-11-10T06:36:17.016Z,21.13
2018-11-10T06:38:43.021Z,21.13
2018-11-10T06:41:09.095Z,21.13
2018-11-10T06:43:35.064Z,21.13
2018-11-10T06:46:01.074Z,21.12
2018-11-10T06:48:27.095Z,21.13
2018-11-10T06:50:53.102Z,21.13
2018-11-10T06:53:19.106Z,21.13
2018-11-10T06:55:45.095Z,21.13
2018-11-10T06:58:11.098Z,21.13
2018-11-10T07:00:37.088Z,21.13
2018-11-10T07:03:03.098Z,21.13
2018-11-10T07:05:29.130Z,21.13
2018-11-10T07:07:55.178Z,21.14
2018-11-10T07:10:21.181Z,21.15
2018-11-10T07:12:47.173Z,21.13
2018-11-10T07:15:13.157Z,21.14
2018-11-10T07:17:39.273Z,21.15
2018-11-10T07:20:05.215Z,21.13
2018-11-10T07:22:31.208Z,21.15
2018-11-10T07:24:57.256Z,21.13
2018-11-10T07:27:23.204Z,21.16
2018-11-10T07:29:49.191Z,21.14
2018-11-10T07:32:15.215Z,21.17
2018-11-10T07:34:41.268Z,21.19
2018-11-10T07:37:07.478Z,21.20
2018-11-10T07:39:33.458Z,21.22
2018-11-10T07:41:59.466Z,21.23
2018-11-10T07:44:25.483Z,21.24
2018-11-10T07:46:51.490Z,21.23
2018-11-10T07:49:17.551Z,21.21
2018-11-10T07:51:43.691Z,21.21
2018-11-10T07:54:10.961Z,21.19
2018-11-10T07:56:36.931Z,21.20
2018-11-10T07:59:02.965Z,21.22
2018-11-10T08:01:28.948Z,21.21
2018-11-10T08:03:54.958Z,21.22
2018-11-10T08:06:20.946Z,21.24
2018-11-10T08:08:46.955Z,21.25
2018-11-10T08:11:12.937Z,21.25
2018-11-10T08:13:38.947Z,21.25
2018-11-10T08:16:04.950Z,21.24
2018-11-10T08:18:31.026Z,21.30
2018-11-10T08:20:56.952Z,21.35
2018-11-10T08:23:22.946Z,21.37
2018-11-10T08:25:48.935Z,21.34
2018-11-10T08:28:15.819Z,21.33
2018-11-10T08:30:41.789Z,21.33
2018-11-10T08:33:07.783Z,21.36
2018-11-10T08:35:35.004Z,21.37
2018-11-10T08:38:01.001Z,21.37
2018-11-10T08:40:27.013Z,21.38
2018-11-10T08:42:53.033Z,21.38
2018-11-10T08:45:19.005Z,21.40
2018-11-10T08:47:44.986Z,21.39
2018-11-10T08:50:10.971Z,21.42
2018-11-10T08:52:36.951Z,21.41
2018-11-10T08:55:02.972Z,21.43
2018-11-10T08:57:29.184Z,21.40
2018-11-10T08:59:55.142Z,21.38
2018-11-10T09:02:21.159Z,21.37
2018-11-10T09:04:47.176Z,21.41
2018-11-10T09:07:13.196Z,21.42
2018-11-10T09:09:39.219Z,21.41
2018-11-10T09:12:07.432Z,21.40
2018-11-10T09:14:33.407Z,21.41
2018-11-10T09:16:59.401Z,21.41
2018-11-10T09:19:25.383Z,21.40
2018-11-10T09:21:51.465Z,21.42
2018-11-10T09:24:17.391Z,21.43
2018-11-10T09:26:43.396Z,21.41
2018-11-10T09:29:09.443Z,21.41
2018-11-10T09:31:35.430Z,21.45
2018-11-10T09:34:01.553Z,21.42
2018-11-10T09:36:27.651Z,21.44
2018-11-10T09:38:53.872Z,21.43
2018-11-10T09:41:19.869Z,21.44
2018-11-10T09:43:45.883Z,21.44
2018-11-10T09:46:11.894Z,21.51
2018-11-10T09:48:37.902Z,21.51
2018-11-10T09:51:03.942Z,21.54
2018-11-10T09:53:29.939Z,21.55
2018-11-10T09:55:55.939Z,21.53
2018-11-10T09:58:21.943Z,21.56
2018-11-10T10:00:47.960Z,21.56
2018-11-10T10:03:14.071Z,21.58
2018-11-10T10:05:40.057Z,21.58
2018-11-10T10:08:06.074Z,21.58
2018-11-10T10:10:32.076Z,21.61
2018-11-10T10:12:58.063Z,21.62
2018-11-10T10:15:24.052Z,21.63
2018-11-10T10:17:50.064Z,21.61
2018-11-10T10:20:16.064Z,21.64
2018-11-10T10:22:42.057Z,21.67
2018-11-10T10:25:08.344Z,21.66
2018-11-10T10:27:34.339Z,21.67
2018-11-10T10:30:00.329Z,21.65
2018-11-10T10:32:26.334Z,21.66
2018-11-10T10:34:52.407Z,21.66
2018-11-10T10:37:18.393Z,21.66
2018-11-10T10:39:44.410Z,21.64
2018-11-10T10:42:10.366Z,21.69
2018-11-10T10:44:36.355Z,21.71
2018-11-10T10:47:02.344Z,21.68
2018-11-10T10:49:28.328Z,21.72
2018-11-10T10:51:54.311Z,21.72
2018-11-10T10:54:20.330Z,21.71
2018-11-10T10:56:46.325Z,21.75
2018-11-10T10:59:12.322Z,21.69
2018-11-10T11:01:38.341Z,21.69
2018-11-10T11:04:04.466Z,21.68
2018-11-10T11:06:30.448Z,21.68
2018-11-10T11:08:56.481Z,21.77
2018-11-10T11:11:22.473Z,21.79
2018-11-10T11:13:48.496Z,21.77
2018-11-10T11:16:14.507Z,21.78
2018-11-10T11:18:40.876Z,21.79
2018-11-10T11:21:06.838Z,21.79
2018-11-10T11:23:32.908Z,21.80
2018-11-10T11:25:58.916Z,21.80
2018-11-10T11:28:24.933Z,21.83
2018-11-10T11:30:50.911Z,21.85
2018-11-10T11:33:16.895Z,21.87
2018-11-10T11:35:42.875Z,21.92
2018-11-10T11:38:08.889Z,21.92
2018-11-10T11:40:34.875Z,21.96
2018-11-10T11:43:00.881Z,22.01
2018-11-10T11:45:26.866Z,22.01
2018-11-10T11:47:52.894Z,22.04
2018-11-10T11:50:18.864Z,22.05
2018-11-10T11:52:44.878Z,22.07
2018-11-10T11:55:10.862Z,22.07
2018-11-10T11:57:36.871Z,22.10
2018-11-10T12:00:02.866Z,22.11
2018-11-10T12:02:28.901Z,22.15
2018-11-10T12:04:54.893Z,22.15
2018-11-10T12:07:20.876Z,22.15
2018-11-10T12:09:46.885Z,22.18
2018-11-10T12:12:12.890Z,22.21
2018-11-10T12:14:38.871Z,22.23
2018-11-10T12:17:04.876Z,22.24
2018-11-10T12:19:30.840Z,22.25
2018-11-10T12:21:56.832Z,22.29
2018-11-10T12:24:22.829Z,22.31
2018-11-10T12:26:48.896Z,22.33
2018-11-10T12:29:14.800Z,22.36
2018-11-10T12:31:40.786Z,22.36
2018-11-10T12:34:06.798Z,22.37
2018-11-10T12:36:32.828Z,22.40
2018-11-10T12:38:58.957Z,22.40
2018-11-10T12:41:24.867Z,22.45
2018-11-10T12:43:50.869Z,22.48
2018-11-10T12:46:16.896Z,22.45
2018-11-10T12:48:42.904Z,22.48
2018-11-10T12:51:08.876Z,22.47
2018-11-10T12:53:34.885Z,22.49
2018-11-10T12:56:00.901Z,22.51
2018-11-10T12:58:26.888Z,22.51
2018-11-10T13:00:52.938Z,22.54
2018-11-10T13:03:18.924Z,22.54
2018-11-10T13:05:44.922Z,22.55
2018-11-10T13:08:10.953Z,22.57
2018-11-10T13:10:36.973Z,22.58
2018-11-10T13:13:02.954Z,22.60
2018-11-10T13:15:28.957Z,22.56
2018-11-10T13:17:54.961Z,22.62
2018-11-10T13:20:21.027Z,22.58
2018-11-10T13:22:46.963Z,22.58
2018-11-10T13:25:12.982Z,22.55
2018-11-10T13:27:38.962Z,22.49
2018-11-10T13:30:04.983Z,22.49
2018-11-10T13:32:30.993Z,22.47
2018-11-10T13:34:56.998Z,22.43
2018-11-10T13:37:22.989Z,22.46
2018-11-10T13:39:49.025Z,22.54
2018-11-10T13:42:15.029Z,22.49
2018-11-10T13:44:40.968Z,22.50
2018-11-10T13:47:06.980Z,22.50
2018-11-10T13:49:32.969Z,22.50
2018-11-10T13:51:59.341Z,22.51
2018-11-10T13:54:24.974Z,22.52
2018-11-10T13:56:50.956Z,22.51
2018-11-10T13:59:16.988Z,22.49
2018-11-10T14:01:43.011Z,22.49
2018-11-10T14:04:08.986Z,22.47
2018-11-10T14:06:34.978Z,22.44
2018-11-10T14:09:00.988Z,22.46
2018-11-10T14:11:26.977Z,22.47
2018-11-10T14:13:52.992Z,22.46
2018-11-10T14:16:18.996Z,22.45
2018-11-10T14:18:45.015Z,22.45
2018-11-10T14:21:22.222Z,22.45
2018-11-10T14:23:48.592Z,22.43
2018-11-10T14:26:24.418Z,22.41
2018-11-10T14:28:51.498Z,22.37
2018-11-10T14:31:19.367Z,22.38
2018-11-10T14:33:45.932Z,22.35
2018-11-10T14:36:12.319Z,22.33
2018-11-10T14:38:39.016Z,22.33
2018-11-10T14:41:05.668Z,22.29
2018-11-10T14:43:32.626Z,22.28
2018-11-10T14:45:59.827Z,22.28
2018-11-10T14:48:26.244Z,22.25
2018-11-10T14:50:52.780Z,22.28
2018-11-10T14:53:19.789Z,22.29
2018-11-10T14:55:46.071Z,22.32
2018-11-10T14:58:12.673Z,22.28
2018-11-10T15:00:39.970Z,22.28
2018-11-10T15:03:07.928Z,22.28
2018-11-10T15:05:34.544Z,22.26
2018-11-10T15:08:00.688Z,22.27
2018-11-10T15:10:29.496Z,22.27
2018-11-10T15:12:57.242Z,22.29
2018-11-10T15:15:29.155Z,22.29
2018-11-10T15:18:05.600Z,22.29
2018-11-10T15:20:33.785Z,22.28
2018-11-10T15:23:01.618Z,22.27
2018-11-10T15:25:27.676Z,22.27
2018-11-10T15:27:53.644Z,22.28
2018-11-10T15:30:19.664Z,22.28
2018-11-10T15:32:45.649Z,22.28
2018-11-10T15:35:11.636Z,22.26
2018-11-10T15:37:37.703Z,22.28
2018-11-10T15:40:04.564Z,22.29
2018-11-10T15:42:33.012Z,22.28
2018-11-10T15:44:59.021Z,22.27
2018-11-10T15:47:25.009Z,22.27
2018-11-10T15:49:51.018Z,22.28
2018-11-10T15:52:23.467Z,22.28
2018-11-10T15:54:46.010Z,22.27
2018-11-10T15:57:12.080Z,22.27
2018-11-10T15:59:38.029Z,22.27
2018-11-10T16:02:04.262Z,22.28
2018-11-10T16:04:30.272Z,22.27
2018-11-10T16:06:56.338Z,22.27
2018-11-10T16:09:22.408Z,22.28
2018-11-10T16:11:48.306Z,22.29
2018-11-10T16:14:14.308Z,22.29
2018-11-10T16:16:40.299Z,22.28
2018-11-10T16:19:06.302Z,22.24
2018-11-10T16:21:32.317Z,22.24
2018-11-10T16:23:58.333Z,22.24
2018-11-10T16:26:24.314Z,22.27
2018-11-10T16:28:50.295Z,22.26
2018-11-10T16:31:16.294Z,22.26
2018-11-10T16:33:42.307Z,22.26
2018-11-10T16:36:08.297Z,22.26
2018-11-10T16:38:36.719Z,22.25
2018-11-10T16:41:02.708Z,22.25
2018-11-10T16:43:28.709Z,22.26
2018-11-10T16:45:54.777Z,22.26
2018-11-10T16:48:20.858Z,22.27
2018-11-10T16:50:48.769Z,22.26
2018-11-10T16:53:14.799Z,22.25
2018-11-10T16:55:40.766Z,22.24
2018-11-10T16:58:13.400Z,22.24
2018-11-10T17:00:39.361Z,22.23
2018-11-10T17:03:05.438Z,22.21
2018-11-10T17:05:31.480Z,22.22
2018-11-10T17:07:57.466Z,22.22
2018-11-10T17:10:23.444Z,22.17
2018-11-10T17:12:49.470Z,22.14
2018-11-10T17:15:15.526Z,22.16
2018-11-10T17:17:41.495Z,22.15
2018-11-10T17:20:07.547Z,22.13
2018-11-10T17:22:33.600Z,22.13
2018-11-10T17:24:59.516Z,22.09
2018-11-10T17:27:25.528Z,22.09
2018-11-10T17:29:51.538Z,22.07
2018-11-10T17:32:17.561Z,22.06
2018-11-10T17:34:43.569Z,22.05
2018-11-10T17:37:09.571Z,22.03
2018-11-10T17:39:35.677Z,22.04
2018-11-10T17:42:01.649Z,22.05
2018-11-10T17:44:27.635Z,22.02
2018-11-10T17:46:53.642Z,22.00
2018-11-10T17:49:19.626Z,22.00
2018-11-10T17:51:45.633Z,21.98
2018-11-10T17:54:11.619Z,21.99
2018-11-10T17:56:37.673Z,21.99
2018-11-10T17:59:03.648Z,22.00
2018-11-10T18:01:29.857Z,21.98
2018-11-10T18:03:55.905Z,21.98
2018-11-10T18:06:21.828Z,21.97
2018-11-10T18:08:47.859Z,21.99
2018-11-10T18:11:13.943Z,21.97
2018-11-10T18:13:39.955Z,21.97
2018-11-10T18:16:06.056Z,21.95
2018-11-10T18:18:32.033Z,21.94
2018-11-10T18:20:58.020Z,21.94
2018-11-10T18:23:24.006Z,21.95
2018-11-10T18:25:50.037Z,21.94
2018-11-10T18:28:16.025Z,21.95
2018-11-10T18:30:42.035Z,21.95
2018-11-10T18:33:08.057Z,21.97
2018-11-10T18:35:34.065Z,21.95
2018-11-10T18:38:00.054Z,21.93
2018-11-10T18:40:26.047Z,21.93
2018-11-10T18:42:52.049Z,21.92
2018-11-10T18:45:18.032Z,21.92
2018-11-10T18:47:44.041Z,21.93
2018-11-10T18:50:10.147Z,21.91
2018-11-10T18:52:36.167Z,21.91
2018-11-10T18:55:02.182Z,21.90
2018-11-10T18:57:28.285Z,21.89
2018-11-10T18:59:54.224Z,21.87
2018-11-10T19:02:20.213Z,21.86
2018-11-10T19:04:46.216Z,21.85
2018-11-10T19:07:12.213Z,21.84
2018-11-10T19:09:38.225Z,21.82
2018-11-10T19:12:04.249Z,21.79
2018-11-10T19:14:30.229Z,21.80
2018-11-10T19:16:58.904Z,21.79
2018-11-10T19:19:24.887Z,21.76
2018-11-10T19:21:50.881Z,21.76
2018-11-10T19:24:16.962Z,21.76
2018-11-10T19:26:43.025Z,21.74
2018-11-10T19:29:09.017Z,21.76
2018-11-10T19:31:35.065Z,21.77
2018-11-10T19:34:01.904Z,21.76
2018-11-10T19:36:28.547Z,21.78
2018-11-10T19:38:54.531Z,21.79
2018-11-10T19:41:20.565Z,21.78
2018-11-10T19:43:46.569Z,21.77
2018-11-10T19:46:12.562Z,21.76
2018-11-10T19:48:38.549Z,21.77
2018-11-10T19:51:04.809Z,21.75
2018-11-10T19:53:30.571Z,21.76
2018-11-10T19:56:02.841Z,21.76
2018-11-10T19:58:28.851Z,21.75
2018-11-10T20:00:54.924Z,21.76
2018-11-10T20:03:20.879Z,21.76
2018-11-10T20:05:46.897Z,21.78
2018-11-10T20:08:12.932Z,21.77
2018-11-10T20:10:38.920Z,21.77
2018-11-10T20:13:04.926Z,21.77
2018-11-10T20:15:30.910Z,21.77
2018-11-10T20:17:56.921Z,21.74
2018-11-10T20:20:22.930Z,21.75
2018-11-10T20:22:48.919Z,21.75
2018-11-10T20:25:14.932Z,21.74
2018-11-10T20:27:40.941Z,21.72
2018-11-10T20:30:06.946Z,21.73
2018-11-10T20:32:33.132Z,21.74
2018-11-10T20:34:59.117Z,21.75
2018-11-10T20:37:25.269Z,21.76
2018-11-10T20:39:51.256Z,21.75
2018-11-10T20:42:17.273Z,21.76
2018-11-10T20:44:43.290Z,21.77
2018-11-10T20:47:09.274Z,21.76
2018-11-10T20:49:35.292Z,21.76
2018-11-10T20:52:01.308Z,21.76
2018-11-10T20:54:27.318Z,21.76
2018-11-10T20:56:53.322Z,21.77
2018-11-10T20:59:19.334Z,21.77
2018-11-10T21:01:45.320Z,21.78
2018-11-10T21:04:11.350Z,21.78
2018-11-10T21:06:37.361Z,21.76
2018-11-10T21:09:03.369Z,21.76
2018-11-10T21:11:29.378Z,21.75
2018-11-10T21:13:55.432Z,21.75
2018-11-10T21:16:21.454Z,21.75
2018-11-10T21:18:47.477Z,21.74
2018-11-10T21:21:13.465Z,21.75
2018-11-10T21:23:39.530Z,21.75
2018-11-10T21:26:05.517Z,21.75
2018-11-10T21:28:31.531Z,21.76
2018-11-10T21:30:57.508Z,21.76
2018-11-10T21:33:23.590Z,21.75
2018-11-10T21:35:49.526Z,21.73
2018-11-10T21:38:15.544Z,21.74
2018-11-10T21:40:41.557Z,21.72
2018-11-10T21:43:07.581Z,21.70
2018-11-10T21:45:33.591Z,21.68
2018-11-10T21:47:59.609Z,21.66
2018-11-10T21:50:26.677Z,21.65
2018-11-10T21:52:52.687Z,21.64
2018-11-10T21:55:18.697Z,21.64
2018-11-10T21:57:44.709Z,21.62
2018-11-10T22:00:10.690Z,21.61
2018-11-10T22:02:46.143Z,21.61
2018-11-10T22:05:12.272Z,21.59
2018-11-10T22:07:38.248Z,21.59
2018-11-10T22:10:04.496Z,21.59
2018-11-10T22:12:30.482Z,21.57
2018-11-10T22:14:56.596Z,21.56
2018-11-10T22:17:22.617Z,21.56
2018-11-10T22:19:48.622Z,21.55
2018-11-10T22:22:14.665Z,21.57
2018-11-10T22:24:40.651Z,21.57
2018-11-10T22:27:06.941Z,21.56
2018-11-10T22:29:32.960Z,21.55
2018-11-10T22:31:58.963Z,21.54
2018-11-10T22:34:24.985Z,21.53
2018-11-10T22:36:50.981Z,21.54
2018-11-10T22:39:16.985Z,21.53
2018-11-10T22:41:42.973Z,21.52
2018-11-10T22:44:08.988Z,21.52
2018-11-10T22:46:34.994Z,21.52
2018-11-10T22:49:01.019Z,21.52
2018-11-10T22:51:27.030Z,21.50
2018-11-10T22:53:53.010Z,21.50
2018-11-10T22:56:18.992Z,21.50
2018-11-10T22:58:44.978Z,21.49
2018-11-10T23:01:11.023Z,21.49
2018-11-10T23:03:37.078Z,21.48
2018-11-10T23:06:03.239Z,21.46
2018-11-10T23:08:29.216Z,21.47
2018-11-10T23:10:55.200Z,21.46
2018-11-10T23:13:21.191Z,21.46
2018-11-10T23:15:47.174Z,21.45
2018-11-10T23:18:13.743Z,21.46
2018-11-10T23:20:39.732Z,21.45
2018-11-10T23:23:06.515Z,21.44
2018-11-10T23:25:32.484Z,21.44
2018-11-10T23:27:58.487Z,21.43
2018-11-10T23:30:24.469Z,21.42
2018-11-10T23:32:50.477Z,21.43
2018-11-10T23:35:16.482Z,21.43
2018-11-10T23:37:42.513Z,21.42
2018-11-10T23:40:08.504Z,21.42
2018-11-10T23:42:34.484Z,21.41
2018-11-10T23:45:00.497Z,21.40
2018-11-10T23:47:26.484Z,21.40
2018-11-10T23:49:52.464Z,21.40
2018-11-10T23:52:18.467Z,21.39
2018-11-10T23:54:44.473Z,21.39
2018-11-10T23:57:10.482Z,21.40
2018-11-10T23:59:36.486Z,21.39
